Time;durP1;ratioP1;P1;durP2;ratioP2;P2;SDS_P1;SDS_P2;PMS_P1;PMS_P2;Temp;Humidity;BMP_temperature;BMP_pressure;BME280_temperature;BME280_humidity;BME280_pressure;Samples;Min_cycle;Max_cycle;Signal;HPM_P1;HPM_P2
2023/12/01 00:00:09;;;;;;;7.85;6.30;;;2.60;99.90;;;;;;5042907;28;20206;-74
2023/12/01 00:02:36;;;;;;;9.68;6.05;;;;;;;;;;5048590;28;20200;-73
2023/12/01 00:05:03;;;;;;;7.82;6.32;;;2.40;99.90;;;;;;5043838;28;20647;-73
2023/12/01 00:07:30;;;;;;;7.65;5.97;;;;;;;;;;5047034;28;20201;-74
2023/12/01 00:09:57;;;;;;;7.10;6.00;;;2.30;99.90;;;;;;5047298;28;20206;-73
2023/12/01 00:12:24;;;;;;;5.72;5.10;;;;;;;;;;5042750;28;20591;-73
2023/12/01 00:14:51;;;;;;;8.48;7.13;;;2.50;99.90;;;;;;5048490;28;20199;-73
2023/12/01 00:17:19;;;;;;;6.10;5.28;;;;;;;;;;5047505;28;20194;-73
2023/12/01 00:19:46;;;;;;;12.55;5.68;;;;;;;;;;5044361;28;20203;-74
2023/12/01 00:22:14;;;;;;;5.40;4.90;;;;;;;;;;5047313;28;20618;-73
2023/12/01 00:24:41;;;;;;;6.25;4.65;;;;;;;;;;5041705;28;20197;-74
2023/12/01 00:27:07;;;;;;;8.40;5.85;;;2.30;99.90;;;;;;5041287;28;20210;-74
2023/12/01 00:29:34;;;;;;;6.80;6.13;;;;;;;;;;5047616;28;20202;-74
2023/12/01 00:32:02;;;;;;;12.30;7.43;;;;;;;;;;5043400;28;20695;-74
2023/12/01 00:34:30;;;;;;;7.25;6.47;;;;;;;;;;5047367;28;20222;-74
2023/12/01 00:37:31;;;;;;;8.13;6.35;;;2.50;99.90;;;;;;5047539;28;20541;-73
2023/12/01 00:39:58;;;;;;;6.15;5.53;;;2.50;99.90;;;;;;5042674;28;20209;-74
2023/12/01 00:42:25;;;;;;;6.78;5.70;;;2.60;99.90;;;;;;5046668;28;20638;-73
2023/12/01 00:44:52;;;;;;;7.28;5.75;;;2.50;99.90;;;;;;5039373;28;20218;-74
2023/12/01 00:47:19;;;;;;;5.28;4.78;;;;;;;;;;5043939;28;20623;-73
2023/12/01 00:49:48;;;;;;;7.15;5.57;;;2.30;99.90;;;;;;5044529;28;20297;-74
2023/12/01 00:52:15;;;;;;;8.45;4.75;;;;;;;;;;5047705;28;20673;-74
2023/12/01 00:54:42;;;;;;;6.32;5.60;;;;;;;;;;5047916;28;20271;-74
2023/12/01 00:57:09;;;;;;;7.00;4.97;;;;;;;;;;5048155;28;20201;-73
2023/12/01 00:59:36;;;;;;;5.57;5.18;;;;;;;;;;5045278;28;20204;-73
2023/12/01 01:02:03;;;;;;;7.32;5.10;;;2.50;99.90;;;;;;5045455;28;20233;-74
2023/12/01 01:04:30;;;;;;;5.88;5.30;;;;;;;;;;5043645;28;20556;-74
2023/12/01 01:06:58;;;;;;;5.90;4.88;;;2.30;99.90;;;;;;5046214;28;20202;-73
2023/12/01 01:09:25;;;;;;;9.20;5.90;;;2.30;99.90;;;;;;5046509;28;20205;-73
2023/12/01 01:11:52;;;;;;;9.85;7.57;;;2.20;99.90;;;;;;5037501;28;20652;-73
2023/12/01 01:14:19;;;;;;;8.40;5.70;;;;;;;;;;5044381;28;20679;-73
2023/12/01 01:16:46;;;;;;;9.25;5.80;;;2.20;99.90;;;;;;5047394;28;20204;-73
2023/12/01 01:19:13;;;;;;;9.10;6.25;;;;;;;;;;5046686;28;20234;-73
2023/12/01 01:21:40;;;;;;;8.18;6.63;;;2.50;99.90;;;;;;5047907;28;20199;-73
2023/12/01 01:24:08;;;;;;;9.88;5.88;;;1.90;99.90;;;;;;5046884;28;20198;-73
2023/12/01 01:26:35;;;;;;;7.55;5.70;;;;;;;;;;5042638;28;20227;-73
2023/12/01 01:29:02;;;;;;;6.68;4.45;;;;;;;;;;5044972;28;20719;-74
2023/12/01 01:31:29;;;;;;;6.68;5.53;;;;;;;;;;5043397;28;20229;-73
2023/12/01 01:33:57;;;;;;;7.00;5.35;;;;;;;;;;5043054;28;20203;-73
2023/12/01 01:36:24;;;;;;;6.65;5.18;;;;;;;;;;5043787;28;20213;-73
2023/12/01 01:38:51;;;;;;;5.60;5.00;;;;;;;;;;5046803;28;20620;-73
2023/12/01 01:41:19;;;;;;;6.05;5.43;;;2.10;99.90;;;;;;5042060;28;20209;-74
2023/12/01 01:43:46;;;;;;;7.00;6.28;;;;;;;;;;5046590;28;20225;-73
2023/12/01 01:46:14;;;;;;;8.35;6.97;;;2.00;99.90;;;;;;5043317;28;20214;-74
2023/12/01 01:48:42;;;;;;;11.48;7.82;;;2.00;99.90;;;;;;5039988;28;20205;-73
2023/12/01 01:51:10;;;;;;;6.00;5.43;;;;;;;;;;5041340;28;20209;-73
2023/12/01 01:53:41;;;;;;;6.47;5.85;;;2.00;99.90;;;;;;5048035;28;20323;-74
2023/12/01 01:56:12;;;;;;;9.57;5.15;;;1.80;99.90;;;;;;5043183;28;20217;-73
2023/12/01 01:58:40;;;;;;;8.95;4.65;;;1.70;99.90;;;;;;5042162;28;20201;-73
2023/12/01 02:01:08;;;;;;;7.35;5.85;;;;;;;;;;5042502;28;20213;-73
2023/12/01 02:03:35;;;;;;;7.38;4.80;;;1.70;99.90;;;;;;5042795;28;20284;-73
2023/12/01 02:06:06;;;;;;;11.05;6.18;;;1.60;99.90;;;;;;5043065;28;20198;-73
2023/12/01 02:08:34;;;;;;;7.65;5.57;;;1.50;99.90;;;;;;5040695;28;20219;-73
2023/12/01 02:11:03;;;;;;;6.53;5.50;;;1.60;99.90;;;;;;5046507;28;20207;-73
2023/12/01 02:13:30;;;;;;;7.38;4.90;;;1.70;99.90;;;;;;5040638;28;20644;-73
2023/12/01 02:16:00;;;;;;;7.82;5.95;;;;;;;;;;5033728;28;20212;-74
2023/12/01 02:18:29;;;;;;;6.47;4.68;;;1.70;99.90;;;;;;5045628;28;20208;-72
2023/12/01 02:20:57;;;;;;;6.13;5.07;;;1.70;99.90;;;;;;5046649;28;20208;-73
2023/12/01 02:23:26;;;;;;;8.07;6.00;;;1.80;99.90;;;;;;5037506;28;20255;-73
2023/12/01 02:25:54;;;;;;;8.23;5.05;;;2.10;99.90;;;;;;5041061;28;20228;-73
2023/12/01 02:28:21;;;;;;;5.57;4.20;;;;;;;;;;5039763;28;20262;-73
2023/12/01 02:30:51;;;;;;;6.70;5.40;;;1.70;99.90;;;;;;5034363;28;20213;-73
2023/12/01 02:33:20;;;;;;;4.68;3.50;;;1.70;99.90;;;;;;5042692;28;20745;-73
2023/12/01 02:35:52;;;;;;;5.25;4.18;;;1.90;99.90;;;;;;5045514;28;20494;-73
2023/12/01 02:38:19;;;;;;;6.43;5.93;;;1.80;99.90;;;;;;5036525;28;20276;-73
2023/12/01 02:40:50;;;;;;;10.18;5.70;;;;;;;;;;5045145;28;20200;-73
2023/12/01 02:43:18;;;;;;;4.80;4.40;;;1.50;99.90;;;;;;5044391;28;20237;-73
2023/12/01 02:45:45;;;;;;;5.93;5.20;;;;;;;;;;5043101;28;20204;-73
2023/12/01 02:48:12;;;;;;;9.75;6.07;;;1.70;99.90;;;;;;5046456;28;20205;-73
2023/12/01 02:50:39;;;;;;;6.90;4.60;;;;;;;;;;5041748;28;20248;-73
2023/12/01 02:53:07;;;;;;;6.22;4.13;;;2.20;99.90;;;;;;5045455;28;20224;-73
2023/12/01 02:55:34;;;;;;;8.80;7.03;;;2.10;99.90;;;;;;5043452;28;20196;-73
2023/12/01 02:58:02;;;;;;;4.43;4.03;;;;;;;;;;5046118;28;20225;-73
2023/12/01 03:00:30;;;;;;;5.57;5.03;;;1.50;99.90;;;;;;5044253;28;20212;-74
2023/12/01 03:02:57;;;;;;;6.00;4.70;;;;;;;;;;5043117;28;20203;-74
2023/12/01 03:05:24;;;;;;;6.80;5.25;;;1.70;99.90;;;;;;5043346;28;20197;-73
2023/12/01 03:07:52;;;;;;;9.73;5.82;;;;;;;;;;5043492;28;20203;-73
2023/12/01 03:10:20;;;;;;;11.23;7.70;;;;;;;;;;5045543;28;20673;-74
2023/12/01 03:12:48;;;;;;;6.35;4.72;;;;;;;;;;5041901;28;20687;-73
2023/12/01 03:15:19;;;;;;;7.05;3.97;;;1.60;99.90;;;;;;5043100;28;20196;-73
2023/12/01 03:17:48;;;;;;;11.00;5.60;;;1.70;99.90;;;;;;5044668;28;20240;-73
2023/12/01 03:20:17;;;;;;;5.75;5.13;;;1.30;99.90;;;;;;5044867;28;20202;-74
2023/12/01 03:22:46;;;;;;;7.78;4.65;;;1.40;99.90;;;;;;5048010;28;20208;-74
2023/12/01 03:25:14;;;;;;;6.10;5.18;;;;;;;;;;5048016;28;20211;-74
2023/12/01 03:27:43;;;;;;;4.78;4.47;;;1.60;99.90;;;;;;5048281;28;20200;-74
2023/12/01 03:30:14;;;;;;;4.43;4.03;;;1.60;99.90;;;;;;5049145;28;20215;-73
2023/12/01 03:32:48;;;;;;;8.65;5.55;;;2.10;99.90;;;;;;5043171;28;20705;-73
2023/12/01 03:35:16;;;;;;;12.02;5.75;;;1.60;99.90;;;;;;5048819;28;20223;-73
2023/12/01 03:37:44;;;;;;;4.60;3.97;;;;;;;;;;5045335;28;20226;-73
2023/12/01 03:40:12;;;;;;;6.50;3.75;;;1.60;99.90;;;;;;5048543;28;20232;-73
2023/12/01 03:42:42;;;;;;;8.15;5.88;;;1.50;99.90;;;;;;5035799;28;20196;-73
2023/12/01 03:45:12;;;;;;;4.80;4.32;;;1.50;99.90;;;;;;5039190;28;20206;-74
2023/12/01 03:47:39;;;;;;;7.07;4.90;;;1.50;99.90;;;;;;5047437;28;20203;-73
2023/12/01 03:50:11;;;;;;;7.10;4.95;;;1.60;99.90;;;;;;5048843;28;20292;-73
2023/12/01 03:52:38;;;;;;;5.65;5.05;;;;;;;;;;5045068;28;20224;-73
2023/12/01 03:55:06;;;;;;;7.85;5.05;;;;;;;;;;5045174;28;20205;-74
2023/12/01 03:57:33;;;;;;;14.48;5.07;;;1.20;99.90;;;;;;5043927;28;20251;-73
2023/12/01 04:00:00;;;;;;;4.35;3.88;;;;;;;;;;5043389;28;20256;-73
2023/12/01 04:02:27;;;;;;;4.05;3.75;;;1.70;99.90;;;;;;5047372;28;20220;-73
2023/12/01 04:04:54;;;;;;;6.47;5.07;;;1.40;99.90;;;;;;5049116;28;20554;-74
2023/12/01 04:07:22;;;;;;;9.65;4.82;;;1.40;99.90;;;;;;5046635;28;20291;-73
2023/12/01 04:09:49;;;;;;;6.35;4.97;;;;;;;;;;5048789;28;20211;-73
2023/12/01 04:12:16;;;;;;;5.22;4.72;;;;;;;;;;5044254;28;20283;-74
2023/12/01 04:14:43;;;;;;;5.50;4.65;;;;;;;;;;5047420;28;20653;-74
2023/12/01 04:17:10;;;;;;;6.95;4.63;;;1.40;99.90;;;;;;5046679;28;20196;-73
2023/12/01 04:19:38;;;;;;;8.68;5.25;;;2.10;99.90;;;;;;5045049;28;20203;-73
2023/12/01 04:22:05;;;;;;;5.55;4.60;;;;;;;;;;5048685;28;20212;-73
2023/12/01 04:24:35;;;;;;;6.30;4.68;;;1.40;99.90;;;;;;5041006;28;20254;-73
2023/12/01 04:27:01;;;;;;;5.47;4.63;;;1.40;99.90;;;;;;5043880;28;20207;-73
2023/12/01 04:29:30;;;;;;;6.78;5.70;;;;;;;;;;5047194;28;20597;-72
2023/12/01 04:31:57;;;;;;;6.30;4.90;;;;;;;;;;5047422;28;20200;-72
2023/12/01 04:34:26;;;;;;;7.28;5.50;;;;;;;;;;5041897;28;20222;-73
2023/12/01 04:36:54;;;;;;;5.68;4.53;;;1.30;99.90;;;;;;5047611;28;20532;-73
2023/12/01 04:39:21;;;;;;;13.07;4.68;;;;;;;;;;5043676;28;21614;-73
2023/12/01 04:41:51;;;;;;;6.80;5.30;;;1.60;99.90;;;;;;5048668;28;20211;-73
2023/12/01 04:44:18;;;;;;;8.38;7.15;;;;;;;;;;5045913;28;20684;-73
2023/12/01 04:46:45;;;;;;;5.68;4.90;;;;;;;;;;5047575;28;20211;-73
2023/12/01 04:49:12;;;;;;;9.15;4.50;;;;;;;;;;5040649;28;20561;-73
2023/12/01 04:51:39;;;;;;;5.88;5.38;;;1.40;99.90;;;;;;5047686;28;20207;-73
2023/12/01 04:54:06;;;;;;;8.95;5.93;;;;;;;;;;5049255;28;20637;-73
2023/12/01 04:56:33;;;;;;;3.65;3.05;;;1.50;99.90;;;;;;5040288;28;20288;-73
2023/12/01 04:59:02;;;;;;;6.68;4.35;;;1.30;99.90;;;;;;5045933;28;20249;-73
2023/12/01 05:01:29;;;;;;;7.63;6.32;;;1.90;99.90;;;;;;5045573;28;20203;-73
2023/12/01 05:03:56;;;;;;;5.25;4.75;;;;;;;;;;5045785;28;20203;-73
2023/12/01 05:06:23;;;;;;;4.68;4.15;;;;;;;;;;5048103;28;20204;-73
2023/12/01 05:08:50;;;;;;;6.05;5.32;;;;;;;;;;5046794;28;20200;-73
2023/12/01 05:11:17;;;;;;;4.82;4.40;;;;;;;;;;5047814;28;20674;-73
2023/12/01 05:13:45;;;;;;;4.32;3.88;;;;;;;;;;5044832;28;20243;-73
2023/12/01 05:16:13;;;;;;;5.45;4.80;;;;;;;;;;5046744;28;20201;-73
2023/12/01 05:18:40;;;;;;;6.57;5.05;;;;;;;;;;5042736;28;20204;-73
2023/12/01 05:21:09;;;;;;;10.65;5.55;;;1.50;99.90;;;;;;5047846;28;20211;-73
2023/12/01 05:23:36;;;;;;;7.22;5.30;;;;;;;;;;5041310;28;20830;-73
2023/12/01 05:26:04;;;;;;;5.03;4.47;;;1.50;99.90;;;;;;5042960;28;20574;-73
2023/12/01 05:28:30;;;;;;;5.43;4.20;;;1.40;99.90;;;;;;5042305;28;20275;-73
2023/12/01 05:30:58;;;;;;;5.28;4.07;;;;;;;;;;5039703;28;20192;-73
2023/12/01 05:33:26;;;;;;;6.10;4.53;;;;;;;;;;5043924;28;20216;-73
2023/12/01 05:35:53;;;;;;;5.47;4.90;;;1.30;99.90;;;;;;5043121;28;20589;-74
2023/12/01 05:38:19;;;;;;;7.40;5.40;;;1.10;99.90;;;;;;5041763;28;20205;-73
2023/12/01 05:40:47;;;;;;;4.38;3.72;;;;;;;;;;5046879;28;20587;-75
2023/12/01 05:43:16;;;;;;;4.88;4.47;;;1.30;99.90;;;;;;5039191;28;20211;-76
2023/12/01 05:45:43;;;;;;;4.82;3.65;;;1.20;99.90;;;;;;5033048;28;20201;-76
2023/12/01 05:48:10;;;;;;;4.85;4.40;;;1.30;99.90;;;;;;5048556;28;20218;-75
2023/12/01 05:50:41;;;;;;;5.00;4.15;;;1.10;99.90;;;;;;5044684;28;20196;-76
2023/12/01 05:53:10;;;;;;;8.10;4.90;;;1.00;99.90;;;;;;5048516;28;20215;-76
2023/12/01 05:55:37;;;;;;;6.43;5.32;;;;;;;;;;5041991;28;20704;-75
2023/12/01 05:58:09;;;;;;;5.72;5.10;;;-0.30;99.90;;;;;;5044164;28;20243;-78
2023/12/01 06:00:35;;;;;;;5.60;4.60;;;1.10;99.90;;;;;;5039069;28;20215;-76
2023/12/01 06:03:06;;;;;;;3.60;3.20;;;1.20;99.90;;;;;;5039701;28;20193;-75
2023/12/01 06:05:33;;;;;;;5.75;3.75;;;1.10;99.90;;;;;;5040497;28;20276;-76
2023/12/01 06:08:02;;;;;;;7.03;5.30;;;1.00;99.90;;;;;;5041223;28;20207;-75
2023/12/01 06:10:31;;;;;;;7.07;5.20;;;1.30;99.90;;;;;;5046038;28;20676;-76
2023/12/01 06:12:59;;;;;;;3.70;3.40;;;1.10;99.90;;;;;;5037673;28;20227;-77
2023/12/01 06:15:29;;;;;;;5.82;4.68;;;0.60;99.90;;;;;;5041623;28;20196;-78
2023/12/01 06:17:57;;;;;;;7.18;5.25;;;1.20;99.90;;;;;;5046049;28;20218;-77
2023/12/01 06:20:24;;;;;;;7.88;4.85;;;;;;;;;;5041752;28;20219;-76
2023/12/01 06:22:52;;;;;;;6.97;5.45;;;1.30;99.90;;;;;;5042390;28;20651;-75
2023/12/01 06:25:27;;;;;;;7.47;6.15;;;1.30;99.90;;;;;;5032058;28;20758;-75
2023/12/01 06:27:56;;;;;;;8.23;6.40;;;1.10;99.90;;;;;;5042051;28;21144;-74
2023/12/01 06:30:24;;;;;;;5.60;5.05;;;1.20;99.90;;;;;;5044375;28;20730;-74
2023/12/01 06:32:51;;;;;;;3.42;2.78;;;;;;;;;;5041873;28;20209;-74
2023/12/01 06:35:19;;;;;;;4.60;4.10;;;1.10;99.90;;;;;;5035044;28;20350;-74
2023/12/01 06:37:47;;;;;;;3.50;3.22;;;;;;;;;;5030309;28;20201;-74
2023/12/01 06:40:16;;;;;;;4.65;4.05;;;-1.70;99.90;;;;;;5035718;28;20219;-74
2023/12/01 06:42:47;;;;;;;9.70;4.68;;;1.00;99.90;;;;;;5039074;28;20215;-74
2023/12/01 06:45:15;;;;;;;5.43;4.15;;;1.10;99.90;;;;;;5037141;28;20496;-73
2023/12/01 06:47:46;;;;;;;4.40;3.90;;;1.10;99.90;;;;;;5034049;28;20213;-73
2023/12/01 06:50:14;;;;;;;4.05;3.75;;;1.10;99.90;;;;;;5033684;28;20215;-73
2023/12/01 06:52:42;;;;;;;5.18;4.65;;;0.90;99.90;;;;;;5033369;28;20280;-73
2023/12/01 06:55:10;;;;;;;5.25;3.60;;;1.10;99.90;;;;;;5042795;28;20305;-73
2023/12/01 06:57:38;;;;;;;5.07;4.50;;;1.10;99.90;;;;;;5045534;28;20200;-73
2023/12/01 07:00:08;;;;;;;5.82;4.28;;;1.00;99.90;;;;;;5041705;28;20565;-73
2023/12/01 07:02:37;;;;;;;7.70;4.75;;;1.30;99.90;;;;;;5043806;28;20211;-73
2023/12/01 07:05:06;;;;;;;7.22;4.50;;;0.50;99.90;;;;;;5048468;28;20275;-73
2023/12/01 07:07:33;;;;;;;5.38;3.83;;;1.10;99.90;;;;;;5050362;28;20207;-73
2023/12/01 07:10:04;;;;;;;4.55;4.00;;;;;;;;;;5047319;28;20203;-73
2023/12/01 07:12:32;;;;;;;7.30;5.43;;;;;;;;;;5047212;28;20201;-73
2023/12/01 07:14:59;;;;;;;6.43;3.63;;;;;;;;;;5045262;28;20235;-73
2023/12/01 07:17:27;;;;;;;5.05;3.67;;;1.30;99.90;;;;;;5050143;28;20745;-73
2023/12/01 07:19:54;;;;;;;4.90;3.80;;;1.30;99.90;;;;;;5041974;28;20537;-73
2023/12/01 07:22:22;;;;;;;7.20;3.90;;;;;;;;;;5041919;28;20198;-74
2023/12/01 07:24:49;;;;;;;5.15;4.35;;;1.40;99.90;;;;;;5049336;28;20298;-73
2023/12/01 07:27:16;;;;;;;4.50;4.10;;;;;;;;;;5049717;28;20960;-73
2023/12/01 07:29:43;;;;;;;5.65;4.07;;;1.40;99.90;;;;;;5051727;28;20203;-73
2023/12/01 07:32:10;;;;;;;3.85;3.40;;;;;;;;;;5046202;28;20207;-74
2023/12/01 07:34:38;;;;;;;6.45;5.10;;;1.20;99.90;;;;;;5051552;28;20950;-74
2023/12/01 07:37:10;;;;;;;3.70;3.40;;;1.20;99.90;;;;;;5044955;28;20197;-74
2023/12/01 07:39:37;;;;;;;3.67;3.42;;;1.30;99.90;;;;;;5050812;28;20215;-74
2023/12/01 07:42:04;;;;;;;6.82;3.38;;;1.40;99.90;;;;;;5051782;28;20697;-74
2023/12/01 07:44:31;;;;;;;7.05;5.22;;;;;;;;;;5047880;28;20662;-74
2023/12/01 07:46:58;;;;;;;3.65;3.20;;;1.20;99.90;;;;;;5046843;28;20212;-74
2023/12/01 07:49:25;;;;;;;8.40;3.05;;;;;;;;;;5050744;28;20219;-74
2023/12/01 07:51:53;;;;;;;5.72;4.22;;;;;;;;;;5046082;28;20200;-74
2023/12/01 07:54:22;;;;;;;6.35;3.92;;;1.30;99.90;;;;;;5052967;28;20219;-73
2023/12/01 07:56:49;;;;;;;5.50;5.00;;;;;;;;;;5039366;28;20608;-74
2023/12/01 07:59:16;;;;;;;5.43;4.47;;;1.20;99.90;;;;;;5051133;28;20287;-74
2023/12/01 08:01:42;;;;;;;6.18;3.10;;;1.10;99.90;;;;;;5048116;28;20206;-73
2023/12/01 08:04:10;;;;;;;5.63;3.55;;;;;;;;;;5050837;28;20215;-74
2023/12/01 08:06:37;;;;;;;6.68;3.47;;;;;;;;;;5049555;28;20288;-74
2023/12/01 08:09:05;;;;;;;5.00;3.53;;;1.30;99.90;;;;;;5047652;28;20283;-74
2023/12/01 08:11:32;;;;;;;4.47;3.78;;;1.20;99.90;;;;;;5045765;28;20227;-73
2023/12/01 08:13:59;;;;;;;5.70;4.13;;;;;;;;;;5042454;28;20224;-73
2023/12/01 08:16:26;;;;;;;9.27;4.18;;;;;;;;;;5044058;28;20196;-73
2023/12/01 08:18:53;;;;;;;4.45;2.83;;;;;;;;;;5045724;28;20658;-74
2023/12/01 08:21:20;;;;;;;4.43;4.00;;;;;;;;;;5042449;28;20201;-74
2023/12/01 08:23:49;;;;;;;5.22;4.20;;;;;;;;;;5041501;28;20200;-74
2023/12/01 08:26:17;;;;;;;5.05;3.90;;;1.30;99.90;;;;;;5042016;28;20283;-73
2023/12/01 08:28:45;;;;;;;5.68;3.88;;;;;;;;;;5042658;28;20231;-74
2023/12/01 08:31:12;;;;;;;8.05;5.20;;;1.30;99.90;;;;;;5038684;28;20278;-74
2023/12/01 08:33:39;;;;;;;7.18;4.75;;;;;;;;;;5040078;28;20203;-74
2023/12/01 08:36:07;;;;;;;4.88;4.38;;;1.30;99.90;;;;;;5043450;28;20199;-74
2023/12/01 08:38:34;;;;;;;4.32;3.40;;;;;;;;;;5039688;28;20275;-74
2023/12/01 08:41:01;;;;;;;4.05;3.08;;;;;;;;;;5045415;28;20291;-74
2023/12/01 08:43:30;;;;;;;4.93;3.03;;;1.20;99.90;;;;;;5047640;28;20232;-74
2023/12/01 08:45:57;;;;;;;5.72;5.15;;;;;;;;;;5036677;28;20243;-74
2023/12/01 08:48:24;;;;;;;5.82;3.90;;;;;;;;;;5038471;28;20692;-74
2023/12/01 08:50:51;;;;;;;4.97;4.55;;;;;;;;;;5033573;28;20305;-74
2023/12/01 08:53:18;;;;;;;4.50;3.40;;;1.20;99.90;;;;;;5046362;28;20197;-73
2023/12/01 08:55:46;;;;;;;11.65;3.60;;;;;;;;;;5033497;28;20326;-74
2023/12/01 08:58:13;;;;;;;4.47;3.35;;;;;;;;;;5039097;28;20219;-73
2023/12/01 09:00:41;;;;;;;8.57;5.90;;;1.50;99.90;;;;;;5038286;28;20887;-74
2023/12/01 09:03:09;;;;;;;4.22;3.38;;;;;;;;;;5042055;28;20295;-74
2023/12/01 09:05:36;;;;;;;4.95;4.13;;;;;;;;;;5043843;28;20273;-73
2023/12/01 09:08:05;;;;;;;5.22;4.85;;;;;;;;;;5047248;28;20204;-73
2023/12/01 09:10:32;;;;;;;7.15;4.63;;;1.40;99.90;;;;;;5044931;28;20242;-73
2023/12/01 09:12:59;;;;;;;5.10;4.10;;;1.20;99.90;;;;;;5047348;28;20208;-73
2023/12/01 09:15:27;;;;;;;7.13;4.40;;;;;;;;;;5046141;28;20249;-71
2023/12/01 09:17:55;;;;;;;4.95;4.55;;;2.10;99.90;;;;;;5046212;28;20631;-72
2023/12/01 09:20:22;;;;;;;5.45;3.50;;;;;;;;;;5043147;28;20208;-72
2023/12/01 09:22:49;;;;;;;7.63;4.60;;;;;;;;;;5038769;28;20231;-72
2023/12/01 09:25:16;;;;;;;7.63;5.45;;;;;;;;;;5038014;28;20298;-71
2023/12/01 09:27:43;;;;;;;5.90;4.13;;;;;;;;;;5038743;28;20294;-72
2023/12/01 09:30:15;;;;;;;5.28;3.90;;;1.80;99.90;;;;;;5037661;28;20291;-72
2023/12/01 09:32:43;;;;;;;6.05;3.05;;;;;;;;;;5034037;28;20235;-72
2023/12/01 09:35:11;;;;;;;5.35;4.82;;;;;;;;;;5039968;28;20774;-72
2023/12/01 09:37:39;;;;;;;6.20;4.07;;;;;;;;;;5045906;28;20240;-72
2023/12/01 09:40:07;;;;;;;6.55;4.90;;;;;;;;;;5046005;28;20565;-72
2023/12/01 09:42:34;;;;;;;6.13;5.25;;;1.50;99.90;;;;;;5043557;28;20568;-72
2023/12/01 09:45:02;;;;;;;5.35;4.78;;;1.50;99.90;;;;;;5037712;28;20207;-72
2023/12/01 09:47:31;;;;;;;4.85;3.42;;;1.60;99.90;;;;;;5046491;28;20216;-72
2023/12/01 09:49:59;;;;;;;10.80;5.07;;;1.70;99.90;;;;;;5042266;28;20208;-73
2023/12/01 09:52:28;;;;;;;5.53;4.95;;;1.60;99.90;;;;;;5038621;28;20213;-72
2023/12/01 09:54:55;;;;;;;6.55;3.92;;;;;;;;;;5039458;28;20702;-73
2023/12/01 09:57:22;;;;;;;5.85;3.97;;;;;;;;;;5037056;28;20291;-73
2023/12/01 09:59:49;;;;;;;6.25;3.83;;;1.80;99.90;;;;;;5045796;28;20639;-72
2023/12/01 10:02:16;;;;;;;5.22;4.80;;;;;;;;;;5045530;28;20623;-73
2023/12/01 10:04:45;;;;;;;5.93;5.38;;;1.70;99.90;;;;;;5037743;28;20202;-73
2023/12/01 10:07:12;;;;;;;8.63;4.05;;;1.30;99.90;;;;;;5045913;28;20516;-72
2023/12/01 10:09:40;;;;;;;4.47;3.70;;;1.70;99.90;;;;;;5044439;28;20655;-72
2023/12/01 10:12:11;;;;;;;4.97;4.25;;;1.70;99.90;;;;;;5046460;28;20206;-72
2023/12/01 10:14:38;;;;;;;4.22;3.90;;;1.60;99.90;;;;;;5043622;28;20227;-72
2023/12/01 10:17:07;;;;;;;6.80;4.85;;;1.90;99.90;;;;;;5045825;28;20204;-72
2023/12/01 10:19:43;;;;;;;6.47;5.40;;;1.80;99.90;;;;;;5045195;28;20594;-73
2023/12/01 10:22:12;;;;;;;6.03;4.57;;;1.80;99.90;;;;;;5039776;28;20233;-73
2023/12/01 10:24:40;;;;;;;7.13;5.38;;;3.00;99.90;;;;;;5045975;28;20211;-72
2023/12/01 10:27:08;;;;;;;7.45;3.35;;;1.70;99.90;;;;;;5045392;28;20208;-72
2023/12/01 10:29:37;;;;;;;6.22;5.07;;;1.50;99.90;;;;;;5042991;28;20287;-73
2023/12/01 10:32:06;;;;;;;5.05;3.28;;;1.50;99.90;;;;;;5034804;28;20379;-72
2023/12/01 10:34:34;;;;;;;7.18;4.35;;;;;;;;;;5043753;28;20254;-72
2023/12/01 10:37:03;;;;;;;4.30;3.90;;;1.30;99.90;;;;;;5044308;28;20197;-72
2023/12/01 10:39:30;;;;;;;7.57;3.90;;;1.50;99.90;;;;;;5044971;28;20233;-72
2023/12/01 10:41:59;;;;;;;5.72;4.75;;;2.40;99.90;;;;;;5045237;28;20201;-72
2023/12/01 10:44:27;;;;;;;5.07;4.60;;;1.60;99.90;;;;;;5039501;28;20198;-72
2023/12/01 10:46:56;;;;;;;4.93;4.47;;;1.60;99.90;;;;;;5045361;28;20230;-72
2023/12/01 10:49:23;;;;;;;5.10;4.30;;;1.70;99.90;;;;;;5039246;28;20200;-72
2023/12/01 10:51:52;;;;;;;9.35;4.30;;;1.70;99.90;;;;;;5033452;28;20213;-72
2023/12/01 10:54:23;;;;;;;7.97;4.07;;;0.20;99.90;;;;;;5043029;28;20307;-72
2023/12/01 10:57:11;;;;;;;5.47;4.80;;;1.60;99.90;;;;;;5043724;28;20204;-74
2023/12/01 10:59:39;;;;;;;8.15;5.07;;;1.60;99.90;;;;;;5042511;28;20206;-73
2023/12/01 11:02:06;;;;;;;5.40;4.45;;;1.50;99.90;;;;;;5043533;28;20247;-72
2023/12/01 11:04:34;;;;;;;9.70;5.63;;;1.80;99.90;;;;;;5038160;28;20640;-73
2023/12/01 11:07:18;;;;;;;6.65;3.75;;;1.60;99.90;;;;;;5034277;28;20219;-71
2023/12/01 11:09:58;;;;;;;4.50;4.05;;;1.50;99.90;;;;;;5043689;28;20227;-74
2023/12/01 11:12:29;;;;;;;5.90;3.70;;;;;;;;;;5043352;28;20308;-73
2023/12/01 11:15:06;;;;;;;7.72;3.75;;;1.40;99.90;;;;;;5045215;28;20220;-72
2023/12/01 11:17:33;;;;;;;9.15;6.97;;;;;;;;;;5045284;28;20199;-75
2023/12/01 11:20:00;;;;;;;7.43;4.35;;;;;;;;;;5044730;28;20206;-77
2023/12/01 11:22:32;;;;;;;9.10;4.78;;;1.90;99.90;;;;;;5044970;28;20625;-73
2023/12/01 11:25:01;;;;;;;9.35;6.65;;;1.60;99.90;;;;;;5045297;28;20231;-75
2023/12/01 11:27:32;;;;;;;10.38;6.25;;;1.60;99.90;;;;;;5045080;28;20631;-74
2023/12/01 11:30:00;;;;;;;5.63;4.72;;;;;;;;;;5038059;28;20650;-74
2023/12/01 11:32:32;;;;;;;11.45;6.70;;;1.80;99.90;;;;;;5039808;28;20204;-75
2023/12/01 11:35:08;;;;;;;5.72;4.00;;;1.70;99.90;;;;;;5037576;28;20224;-74
2023/12/01 11:37:59;;;;;;;8.75;5.82;;;1.40;99.90;;;;;;5044076;28;20204;-75
2023/12/01 11:40:27;;;;;;;4.35;4.00;;;;;;;;;;5040094;28;20295;-76
2023/12/01 11:42:57;;;;;;;9.57;7.28;;;1.70;99.90;;;;;;5042609;28;20211;-74
2023/12/01 11:45:36;;;;;;;8.73;6.05;;;1.30;99.90;;;;;;5037228;28;20283;-75
2023/12/01 11:48:07;;;;;;;8.32;6.88;;;1.40;99.90;;;;;;5049582;28;20286;-72
2023/12/01 11:50:34;;;;;;;40.95;25.50;;;1.60;99.90;;;;;;5040583;28;20192;-77
2023/12/01 11:53:02;;;;;;;12.15;6.97;;;2.10;99.90;;;;;;5049112;28;20204;-75
2023/12/01 11:55:29;;;;;;;7.88;5.45;;;1.80;99.90;;;;;;5046652;28;20595;-71
2023/12/01 11:57:58;;;;;;;9.50;7.10;;;1.70;99.90;;;;;;5045807;28;21306;-72
2023/12/01 12:00:25;;;;;;;12.73;8.40;;;1.50;99.90;;;;;;5047706;28;20773;-72
2023/12/01 12:02:52;;;;;;;10.07;7.55;;;1.50;99.90;;;;;;5044342;28;20794;-74
2023/12/01 12:05:20;;;;;;;10.48;8.88;;;1.40;99.90;;;;;;5037541;28;20576;-74
2023/12/01 12:07:47;;;;;;;13.63;9.60;;;1.40;99.90;;;;;;5040274;28;20276;-74
2023/12/01 12:10:15;;;;;;;14.70;7.15;;;1.20;99.90;;;;;;5047211;28;20231;-75
2023/12/01 12:12:41;;;;;;;10.02;5.65;;;1.30;99.90;;;;;;5043112;28;20219;-74
2023/12/01 12:15:13;;;;;;;10.68;6.18;;;1.30;99.90;;;;;;5048277;28;20224;-75
2023/12/01 12:17:41;;;;;;;10.18;5.55;;;1.10;99.90;;;;;;5041325;28;20570;-75
2023/12/01 12:20:11;;;;;;;10.80;7.00;;;1.10;99.90;;;;;;5036959;28;20262;-75
2023/12/01 12:22:39;;;;;;;10.63;7.00;;;1.20;99.90;;;;;;5036581;28;20625;-75
2023/12/01 12:25:10;;;;;;;11.38;7.57;;;1.20;99.90;;;;;;5045798;28;20200;-75
2023/12/01 12:27:40;;;;;;;11.32;8.40;;;1.30;99.90;;;;;;5042458;28;20204;-74
2023/12/01 12:30:10;;;;;;;12.05;7.75;;;1.30;99.90;;;;;;5041835;28;20213;-74
2023/12/01 12:32:37;;;;;;;9.25;7.35;;;1.40;99.90;;;;;;5047532;28;20291;-74
2023/12/01 12:35:05;;;;;;;11.38;9.35;;;1.40;99.90;;;;;;5037795;28;20201;-74
2023/12/01 12:37:33;;;;;;;11.70;8.07;;;1.30;99.90;;;;;;5042002;28;20200;-74
2023/12/01 12:40:00;;;;;;;16.30;10.25;;;1.30;99.90;;;;;;5039432;28;20297;-74
2023/12/01 12:42:27;;;;;;;14.95;10.52;;;1.40;99.90;;;;;;5044490;28;20666;-74
2023/12/01 12:44:55;;;;;;;14.95;9.10;;;1.40;99.90;;;;;;5040819;28;20211;-74
2023/12/01 12:47:24;;;;;;;12.10;8.63;;;1.40;99.90;;;;;;5038262;28;20302;-74
2023/12/01 12:49:53;;;;;;;10.70;7.65;;;1.40;99.90;;;;;;5040067;28;20226;-74
2023/12/01 12:52:20;;;;;;;10.05;7.53;;;1.50;99.90;;;;;;5040452;28;20224;-74
2023/12/01 12:54:47;;;;;;;11.95;10.38;;;1.50;99.90;;;;;;5042274;28;20200;-74
2023/12/01 12:57:14;;;;;;;14.45;8.30;;;1.60;99.90;;;;;;5046463;28;20525;-74
2023/12/01 12:59:41;;;;;;;17.88;8.52;;;1.60;99.90;;;;;;5045987;28;20200;-74
2023/12/01 13:02:08;;;;;;;13.52;8.02;;;1.50;99.90;;;;;;5046704;28;20226;-74
2023/12/01 13:04:37;;;;;;;8.07;6.05;;;;;;;;;;5044795;28;20207;-74
2023/12/01 13:07:04;;;;;;;14.13;9.13;;;1.30;99.90;;;;;;5043426;28;20242;-74
2023/12/01 13:09:31;;;;;;;13.45;8.18;;;1.40;99.90;;;;;;5041239;28;20200;-74
2023/12/01 13:11:58;;;;;;;12.23;7.85;;;1.50;99.90;;;;;;5045694;28;20288;-74
2023/12/01 13:14:24;;;;;;;12.23;9.13;;;1.50;99.90;;;;;;5042033;28;20201;-74
2023/12/01 13:16:51;;;;;;;11.93;7.00;;;1.50;99.90;;;;;;5044331;28;20223;-74
2023/12/01 13:19:18;;;;;;;14.15;11.70;;;1.40;99.90;;;;;;5035973;28;20258;-73
2023/12/01 13:21:47;;;;;;;9.98;8.93;;;1.40;99.90;;;;;;5038363;28;20209;-73
2023/12/01 13:24:14;;;;;;;14.85;8.98;;;1.30;99.90;;;;;;5035776;28;20570;-73
2023/12/01 13:26:40;;;;;;;18.60;8.70;;;1.10;99.90;;;;;;5036991;28;20205;-73
2023/12/01 13:29:07;;;;;;;9.68;6.68;;;1.40;99.90;;;;;;5040605;28;20208;-73
2023/12/01 13:31:34;;;;;;;12.30;8.70;;;1.30;99.90;;;;;;5037564;28;20210;-73
2023/12/01 13:34:01;;;;;;;9.68;7.43;;;1.20;99.90;;;;;;5039005;28;20315;-74